Time;durP1;ratioP1;P1;durP2;ratioP2;P2;SDS_P1;SDS_P2;PMS_P1;PMS_P2;Temp;Humidity;BMP_temperature;BMP_pressure;BME280_temperature;BME280_humidity;BME280_pressure;Samples;Min_cycle;Max_cycle;Signal;HPM_P1;HPM_P2
2022/08/19 00:00:22;;;;;;;8.00;5.75;;;;;;;;;;5094969;28;20050;-68
2022/08/19 00:02:48;;;;;;;6.55;5.70;;;;;;;;;;5113015;28;20176;-68
2022/08/19 00:05:15;;;;;;;9.48;5.45;;;;;;;;;;5112593;27;20031;-68
2022/08/19 00:07:42;;;;;;;6.97;5.38;;;;;;;;;;5090102;27;20043;-68
2022/08/19 00:10:09;;;;;;;8.43;5.85;;;;;;;;;;5108539;27;20046;-68
2022/08/19 00:12:37;;;;;;;7.30;5.80;;;;;;;;;;5096827;28;20396;-68
2022/08/19 00:15:05;;;;;;;10.93;6.75;;;;;;;;;;5126604;27;20039;-68
2022/08/19 00:17:31;;;;;;;9.40;4.95;;;;;;;;;;5094060;27;20071;-68
2022/08/19 00:19:57;;;;;;;8.25;6.38;;;;;;;;;;5094812;28;20396;-68
2022/08/19 00:22:23;;;;;;;9.48;5.78;;;;;;;;;;5111226;28;20472;-68
2022/08/19 00:24:49;;;;;;;8.95;6.88;;;;;;;;;;5091765;28;20043;-68
2022/08/19 00:27:16;;;;;;;9.27;5.85;;;;;;;;;;5091120;27;20032;-68
2022/08/19 00:29:42;;;;;;;10.00;6.57;;;;;;;;;;5112465;28;20046;-68
2022/08/19 00:32:08;;;;;;;9.35;5.97;;;;;;;;;;5112058;27;20082;-68
2022/08/19 00:34:35;;;;;;;8.23;5.85;;;;;;;;;;5113938;27;20198;-68
2022/08/19 00:37:01;;;;;;;9.43;6.10;;;;;;;;;;5112662;27;20592;-68
2022/08/19 00:39:27;;;;;;;8.57;6.28;;;;;;;;;;5093639;28;20050;-68
2022/08/19 00:41:53;;;;;;;10.52;6.57;;;;;;;;;;5112374;27;20034;-68
2022/08/19 00:44:22;;;;;;;8.82;5.65;;;;;;;;;;5112300;28;20615;-68
2022/08/19 00:46:49;;;;;;;8.63;5.90;;;;;;;;;;5104925;27;20044;-68
2022/08/19 00:49:19;;;;;;;8.52;6.68;;;;;;;;;;5120473;27;20043;-68
2022/08/19 00:51:47;;;;;;;10.18;6.13;;;;;;;;;;5111797;28;20369;-68
2022/08/19 00:54:13;;;;;;;8.30;5.90;;;;;;;;;;5111278;27;20324;-68
2022/08/19 00:56:39;;;;;;;8.05;6.57;;;;;;;;;;5077084;27;20099;-68
2022/08/19 00:59:09;;;;;;;10.15;6.80;;;;;;;;;;5111660;28;20278;-68
2022/08/19 01:01:39;;;;;;;8.13;6.55;;;;;;;;;;5091485;28;20088;-68
2022/08/19 01:04:05;;;;;;;8.88;6.60;;;;;;;;;;5109778;27;20504;-68
2022/08/19 01:06:32;;;;;;;10.05;6.53;;;;;;;;;;5091196;27;20122;-68
2022/08/19 01:08:59;;;;;;;10.18;6.65;;;;;;;;;;5107826;27;20468;-68
2022/08/19 01:11:26;;;;;;;9.82;6.93;;;;;;;;;;5069717;28;20067;-68
2022/08/19 01:13:53;;;;;;;8.68;6.60;;;;;;;;;;5098219;28;20576;-68
2022/08/19 01:16:20;;;;;;;9.68;6.95;;;;;;;;;;5093675;27;20047;-68
2022/08/19 01:18:47;;;;;;;8.52;6.78;;;;;;;;;;5110307;28;20485;-68
2022/08/19 01:21:18;;;;;;;9.82;7.40;;;;;;;;;;5101819;27;20035;-68
2022/08/19 01:23:44;;;;;;;8.75;6.45;;;;;;;;;;5092818;28;20046;-68
2022/08/19 01:26:15;;;;;;;8.25;6.43;;;;;;;;;;5117416;27;20535;-68
2022/08/19 01:28:42;;;;;;;8.02;6.30;;;;;;;;;;5089613;28;20036;-68
2022/08/19 01:31:11;;;;;;;8.73;6.95;;;;;;;;;;5085120;28;20047;-69
2022/08/19 01:33:37;;;;;;;8.63;6.35;;;;;;;;;;5111659;27;20043;-68
2022/08/19 01:36:05;;;;;;;8.52;6.70;;;;;;;;;;5103072;27;20043;-68
2022/08/19 01:38:31;;;;;;;6.75;5.93;;;;;;;;;;5091867;28;20047;-68
2022/08/19 01:40:58;;;;;;;9.75;6.97;;;;;;;;;;5090719;28;20370;-68
2022/08/19 01:43:24;;;;;;;9.68;6.85;;;;;;;;;;5111004;27;20096;-68
2022/08/19 01:45:51;;;;;;;12.55;7.45;;;;;;;;;;5101978;28;20044;-68
2022/08/19 01:48:17;;;;;;;8.80;6.75;;;;;;;;;;5100427;28;20575;-68
2022/08/19 01:50:43;;;;;;;10.25;6.72;;;;;;;;;;5099222;28;20039;-68
2022/08/19 01:53:10;;;;;;;9.93;6.82;;;;;;;;;;5082999;28;20086;-68
2022/08/19 01:55:38;;;;;;;9.68;5.82;;;;;;;;;;5088693;28;20048;-68
2022/08/19 01:58:05;;;;;;;7.68;6.25;;;;;;;;;;5084965;28;20048;-68
2022/08/19 02:00:32;;;;;;;9.90;7.22;;;;;;;;;;5083628;28;20051;-68
2022/08/19 02:03:00;;;;;;;12.73;6.97;;;;;;;;;;5071754;28;20040;-68
2022/08/19 02:05:29;;;;;;;12.35;7.15;;;;;;;;;;5093068;28;20091;-68
2022/08/19 02:07:56;;;;;;;11.13;6.50;;;;;;;;;;5089362;28;20041;-68
2022/08/19 02:10:22;;;;;;;8.23;6.15;;;;;;;;;;5081205;28;20040;-68
2022/08/19 02:12:52;;;;;;;10.38;6.63;;;;;;;;;;5099213;28;20071;-68
2022/08/19 02:15:19;;;;;;;9.52;7.15;;;;;;;;;;5088326;28;20443;-68
2022/08/19 02:17:46;;;;;;;9.02;6.47;;;;;;;;;;5098638;28;20043;-68
2022/08/19 02:20:13;;;;;;;8.65;6.70;;;;;;;;;;5084421;28;20091;-68
2022/08/19 02:22:41;;;;;;;8.00;5.93;;;;;;;;;;5094295;28;20043;-68
2022/08/19 02:25:08;;;;;;;8.45;5.78;;;;;;;;;;5078008;28;20075;-68
2022/08/19 02:27:34;;;;;;;8.80;7.05;;;;;;;;;;5101374;28;20039;-68
2022/08/19 02:30:00;;;;;;;7.60;6.40;;;;;;;;;;5087291;28;20043;-68
2022/08/19 02:32:27;;;;;;;8.10;6.68;;;;;;;;;;5089494;28;20149;-68
2022/08/19 02:34:53;;;;;;;13.40;6.32;;;;;;;;;;5090047;28;20489;-68
2022/08/19 02:40:04;;;;;;;9.82;7.32;;;;;;;;;;5093711;28;20073;-68
2022/08/19 02:42:31;;;;;;;9.20;7.68;;;;;;;;;;5095763;28;20144;-68
2022/08/19 02:44:57;;;;;;;12.32;7.75;;;;;;;;;;5093931;28;20044;-68
2022/08/19 02:47:23;;;;;;;9.98;7.50;;;;;;;;;;5109671;27;20089;-68
2022/08/19 02:49:49;;;;;;;17.58;8.50;;;;;;;;;;5109476;28;20050;-68
2022/08/19 02:52:16;;;;;;;12.15;8.60;;;;;;;;;;5090546;28;20466;-69
2022/08/19 02:54:43;;;;;;;12.38;7.13;;;;;;;;;;5116728;27;20047;-68
2022/08/19 02:57:09;;;;;;;15.52;8.27;;;;;;;;;;5076952;28;20400;-68
2022/08/19 02:59:35;;;;;;;10.23;7.90;;;;;;;;;;5109857;27;20072;-68
2022/08/19 03:02:01;;;;;;;10.75;7.75;;;;;;;;;;5109355;28;20043;-69
2022/08/19 03:04:28;;;;;;;10.07;6.72;;;;;;;;;;5091639;28;20075;-69
2022/08/19 03:06:54;;;;;;;11.20;7.15;;;;;;;;;;5112360;28;20051;-69
2022/08/19 03:09:20;;;;;;;9.45;7.50;;;;;;;;;;5088094;28;20031;-68
2022/08/19 03:11:47;;;;;;;13.80;8.05;;;;;;;;;;5109668;28;20063;-68
2022/08/19 03:14:14;;;;;;;12.00;8.40;;;;;;;;;;5109784;28;20396;-68
2022/08/19 03:16:42;;;;;;;10.57;6.78;;;;;;;;;;5104959;28;20036;-68
2022/08/19 03:19:08;;;;;;;10.20;7.70;;;;;;;;;;5090877;28;20140;-69
2022/08/19 03:21:34;;;;;;;8.90;6.57;;;;;;;;;;5111734;28;20031;-69
2022/08/19 03:24:02;;;;;;;9.05;6.03;;;;;;;;;;5096066;28;20039;-68
2022/08/19 03:26:29;;;;;;;11.02;7.13;;;;;;;;;;5113078;28;20493;-69
2022/08/19 03:28:56;;;;;;;10.25;6.95;;;;;;;;;;5091203;28;20035;-69
2022/08/19 03:31:22;;;;;;;9.60;6.93;;;;;;;;;;5102641;28;20400;-68
2022/08/19 03:33:49;;;;;;;10.82;6.65;;;;;;;;;;5065449;28;20495;-68
2022/08/19 03:36:22;;;;;;;11.10;7.18;;;;;;;;;;5094147;28;20070;-69
2022/08/19 03:38:58;;;;;;;13.48;8.05;;;;;;;;;;5108563;28;20036;-68
2022/08/19 03:41:26;;;;;;;11.02;7.38;;;;;;;;;;5091489;28;20047;-69
2022/08/19 03:43:53;;;;;;;11.20;7.55;;;;;;;;;;5108560;28;20118;-69
2022/08/19 03:46:22;;;;;;;10.32;7.65;;;;;;;;;;5077149;28;20062;-68
2022/08/19 03:48:49;;;;;;;12.00;7.85;;;;;;;;;;5084344;28;20047;-68
2022/08/19 03:51:17;;;;;;;9.55;7.38;;;;;;;;;;5087468;28;20047;-68
2022/08/19 03:53:43;;;;;;;9.85;7.13;;;;;;;;;;5086947;28;20082;-69
2022/08/19 03:56:10;;;;;;;10.70;8.10;;;;;;;;;;5078429;28;20036;-68
2022/08/19 03:58:37;;;;;;;9.82;6.75;;;;;;;;;;5087615;28;20135;-69
2022/08/19 04:01:07;;;;;;;9.75;7.35;;;;;;;;;;5091371;28;20122;-69
2022/08/19 04:03:35;;;;;;;9.75;7.07;;;;;;;;;;5091491;28;20040;-68
2022/08/19 04:06:12;;;;;;;10.75;7.90;;;;;;;;;;5097768;28;20450;-69
2022/08/19 04:08:39;;;;;;;10.85;7.45;;;;;;;;;;5098872;28;20058;-68
2022/08/19 04:11:10;;;;;;;10.35;7.25;;;;;;;;;;5072511;28;20070;-68
2022/08/19 04:13:37;;;;;;;12.27;7.68;;;;;;;;;;5094202;28;20067;-70
2022/08/19 04:16:04;;;;;;;12.88;7.85;;;;;;;;;;5098220;28;20032;-69
2022/08/19 04:18:30;;;;;;;9.88;7.65;;;;;;;;;;5096871;28;20097;-68
2022/08/19 04:20:57;;;;;;;11.02;7.35;;;;;;;;;;5085838;28;20155;-69
2022/08/19 04:23:23;;;;;;;11.60;8.93;;;;;;;;;;5089032;28;20508;-69
2022/08/19 04:25:50;;;;;;;8.48;6.82;;;;;;;;;;5089148;28;20520;-70
2022/08/19 04:28:16;;;;;;;12.90;7.65;;;;;;;;;;5098730;28;20056;-69
2022/08/19 04:30:47;;;;;;;12.40;8.90;;;;;;;;;;5076138;28;20039;-70
2022/08/19 04:33:15;;;;;;;12.70;7.85;;;;;;;;;;5092714;28;20050;-71
2022/08/19 04:35:43;;;;;;;11.30;7.63;;;;;;;;;;5086309;28;20064;-70
2022/08/19 04:38:09;;;;;;;12.57;8.63;;;;;;;;;;5094729;28;20482;-69
2022/08/19 04:43:26;;;;;;;14.02;8.98;;;;;;;;;;5091740;28;20063;-70
2022/08/19 04:45:52;;;;;;;13.95;8.73;;;;;;;;;;5086692;28;20045;-69
2022/08/19 04:48:28;;;;;;;12.48;8.70;;;;;;;;;;5087564;28;20044;-67
2022/08/19 04:50:57;;;;;;;9.80;8.15;;;;;;;;;;5088061;28;20072;-67
2022/08/19 04:53:28;;;;;;;11.60;8.80;;;;;;;;;;5075542;28;20083;-67
2022/08/19 04:55:55;;;;;;;11.82;8.85;;;;;;;;;;5086789;28;20520;-67
2022/08/19 04:58:21;;;;;;;11.68;8.73;;;;;;;;;;5078255;28;20048;-67
2022/08/19 05:00:47;;;;;;;11.60;9.05;;;;;;;;;;5070024;28;20540;-67
2022/08/19 05:03:16;;;;;;;14.23;9.10;;;;;;;;;;5086026;28;20317;-67
2022/08/19 05:05:44;;;;;;;14.23;9.25;;;;;;;;;;5086086;28;20028;-67
2022/08/19 05:08:10;;;;;;;13.02;8.95;;;;;;;;;;5078176;28;20036;-68
2022/08/19 05:10:37;;;;;;;12.25;8.68;;;;;;;;;;5083827;28;20092;-68
2022/08/19 05:13:04;;;;;;;11.85;8.93;;;;;;;;;;5079460;28;20039;-68
2022/08/19 05:15:30;;;;;;;14.85;9.10;;;;;;;;;;5081138;28;20047;-68
2022/08/19 05:23:26;;;;;;;16.50;10.98;;;;;;;;;;5088268;28;20067;-68
2022/08/19 05:25:52;;;;;;;14.80;9.48;;;;;;;;;;5079066;28;20109;-68
2022/08/19 05:28:19;;;;;;;14.32;9.98;;;;;;;;;;5079505;28;20036;-68
2022/08/19 05:30:45;;;;;;;14.23;9.77;;;;;;;;;;5088720;28;20077;-68
2022/08/19 05:33:12;;;;;;;17.23;10.65;;;;;;;;;;5082479;28;20462;-68
2022/08/19 05:35:40;;;;;;;15.93;10.20;;;;;;;;;;5066907;28;20079;-68
2022/08/19 05:38:07;;;;;;;12.95;9.23;;;;;;;;;;5075109;28;20258;-68
2022/08/19 05:40:37;;;;;;;17.45;10.73;;;;;;;;;;5073176;28;20071;-68
2022/08/19 05:43:04;;;;;;;15.73;11.18;;;;;;;;;;5078941;28;20040;-68
2022/08/19 05:45:30;;;;;;;13.68;10.50;;;;;;;;;;5089256;28;20047;-68
2022/08/19 05:47:58;;;;;;;15.68;9.13;;;;;;;;;;5104597;27;20097;-68
2022/08/19 05:50:26;;;;;;;17.23;11.50;;;;;;;;;;5082032;28;20031;-68
2022/08/19 05:52:52;;;;;;;14.88;10.23;;;;;;;;;;5090590;28;20039;-68
2022/08/19 05:55:22;;;;;;;12.93;9.68;;;;;;;;;;5067276;28;20044;-73
2022/08/19 05:57:48;;;;;;;21.75;10.60;;;;;;;;;;5088833;27;20588;-73
2022/08/19 06:00:15;;;;;;;13.50;10.65;;;;;;;;;;5087158;28;20508;-73
2022/08/19 06:02:44;;;;;;;15.15;11.45;;;;;;;;;;5092543;28;20396;-73
2022/08/19 06:05:11;;;;;;;14.52;9.25;;;;;;;;;;5077565;28;20047;-74
2022/08/19 06:07:37;;;;;;;16.23;11.73;;;;;;;;;;5097176;27;20043;-73
2022/08/19 06:10:04;;;;;;;14.48;11.10;;;;;;;;;;5064571;28;20035;-74
2022/08/19 06:12:34;;;;;;;16.75;11.73;;;;;;;;;;5089386;28;20042;-74
2022/08/19 06:15:02;;;;;;;16.60;10.75;;;;;;;;;;5092918;28;20105;-74
2022/08/19 06:17:29;;;;;;;18.20;11.95;;;;;;;;;;5091846;27;20374;-73
2022/08/19 06:19:56;;;;;;;18.15;12.00;;;;;;;;;;5062971;28;20470;-74
2022/08/19 06:22:22;;;;;;;16.13;12.10;;;;;;;;;;5056549;28;20186;-75
2022/08/19 06:24:52;;;;;;;15.07;11.38;;;;;;;;;;5056304;28;20048;-75
2022/08/19 06:27:18;;;;;;;16.70;12.00;;;;;;;;;;5076501;28;20122;-75
2022/08/19 06:29:46;;;;;;;14.35;10.57;;;;;;;;;;5076678;28;20044;-74
2022/08/19 06:32:13;;;;;;;16.60;10.65;;;;;;;;;;5066791;28;20039;-74
2022/08/19 06:34:40;;;;;;;19.13;13.88;;;;;;;;;;5072827;28;20071;-75
2022/08/19 06:37:07;;;;;;;16.92;12.98;;;;;;;;;;5082651;28;20513;-74
2022/08/19 06:39:35;;;;;;;17.52;11.55;;;;;;;;;;5091919;27;20048;-72
2022/08/19 06:42:03;;;;;;;16.15;12.38;;;;;;;;;;5069707;28;20128;-74
2022/08/19 06:44:34;;;;;;;19.42;13.02;;;;;;;;;;5079781;28;20128;-74
2022/08/19 06:47:02;;;;;;;16.40;12.98;;;;;;;;;;5065937;28;20052;-74
2022/08/19 06:49:30;;;;;;;17.33;13.40;;;;;;;;;;5061465;28;20047;-74
2022/08/19 06:51:57;;;;;;;18.25;12.38;;;;;;;;;;5054838;28;20537;-74
2022/08/19 06:54:24;;;;;;;22.40;14.07;;;;;;;;;;5039880;28;20044;-74
2022/08/19 06:56:50;;;;;;;19.13;12.45;;;;;;;;;;5059091;28;20106;-74
2022/08/19 06:59:17;;;;;;;18.05;12.95;;;;;;;;;;5057431;28;20040;-77
2022/08/19 07:01:46;;;;;;;17.42;12.50;;;;;;;;;;5042338;28;20128;-73
2022/08/19 07:04:14;;;;;;;16.30;13.07;;;;;;;;;;5060310;28;20033;-75
2022/08/19 07:06:40;;;;;;;18.42;12.68;;;;;;;;;;5056104;28;20048;-74
2022/08/19 07:09:07;;;;;;;22.42;15.07;;;;;;;;;;5061407;28;20044;-74
2022/08/19 07:11:33;;;;;;;19.85;13.95;;;;;;;;;;5060865;28;20272;-73
2022/08/19 07:14:00;;;;;;;18.27;13.43;;;;;;;;;;5029671;28;20048;-73
2022/08/19 07:16:27;;;;;;;18.30;14.38;;;;;;;;;;5057049;28;20543;-73
2022/08/19 07:18:53;;;;;;;24.73;13.85;;;;;;;;;;5063186;28;20456;-73
2022/08/19 07:21:26;;;;;;;18.95;12.85;;;;;;;;;;5045608;28;20045;-73
2022/08/19 07:23:52;;;;;;;18.52;14.05;;;;;;;;;;5064178;28;20123;-74
2022/08/19 07:26:20;;;;;;;27.00;13.40;;;;;;;;;;5067470;28;20050;-73
2022/08/19 07:28:48;;;;;;;19.17;13.70;;;;;;;;;;5027661;28;20093;-70
2022/08/19 07:31:17;;;;;;;17.30;13.02;;;;;;;;;;5063689;28;20037;-69
2022/08/19 07:33:44;;;;;;;19.83;13.50;;;;;;;;;;5058224;28;20041;-69
2022/08/19 07:36:12;;;;;;;21.65;13.73;;;;;;;;;;5064702;28;20040;-69
2022/08/19 07:38:40;;;;;;;17.73;13.50;;;;;;;;;;5066908;28;20032;-69
2022/08/19 07:41:06;;;;;;;19.65;13.38;;;;;;;;;;5076040;28;20093;-69
2022/08/19 07:43:33;;;;;;;20.92;15.43;;;;;;;;;;5072122;28;20045;-69
2022/08/19 07:45:59;;;;;;;23.52;16.00;;;;;;;;;;5081106;28;20067;-69
2022/08/19 07:48:26;;;;;;;21.70;16.13;;;;;;;;;;5073329;28;20052;-71
2022/08/19 07:50:54;;;;;;;21.52;16.70;;;;;;;;;;5091853;28;20081;-70
2022/08/19 07:53:20;;;;;;;23.20;16.73;;;;;;;;;;5092087;28;20040;-71
2022/08/19 07:55:46;;;;;;;22.77;16.42;;;;;;;;;;5077863;28;20125;-72
2022/08/19 07:58:13;;;;;;;23.30;17.15;;;;;;;;;;5091227;28;20086;-72
2022/08/19 08:00:41;;;;;;;24.27;17.52;;;;;;;;;;5086250;28;20040;-70
2022/08/19 08:03:08;;;;;;;23.02;16.90;;;;;;;;;;5064843;28;20043;-70
2022/08/19 08:10:57;;;;;;;24.77;19.10;;;;;;;;;;5077157;28;20052;-70
2022/08/19 08:13:24;;;;;;;25.27;18.48;;;;;;;;;;5092652;28;20406;-70
2022/08/19 08:15:51;;;;;;;24.02;17.58;;;;;;;;;;5086700;28;20039;-70
2022/08/19 08:18:18;;;;;;;25.58;19.10;;;;;;;;;;5086022;28;20036;-71
2022/08/19 08:20:44;;;;;;;27.55;19.85;;;;;;;;;;5074634;28;20375;-70
2022/08/19 08:23:24;;;;;;;29.13;20.05;;;;;;;;;;5074985;28;20746;-69
2022/08/19 08:25:51;;;;;;;29.25;18.77;;;;;;;;;;5045924;28;20573;-68
2022/08/19 08:28:18;;;;;;;26.83;18.75;;;;;;;;;;5078214;28;20064;-68
2022/08/19 08:30:47;;;;;;;25.52;19.05;;;;;;;;;;5081718;28;20036;-68
2022/08/19 08:33:13;;;;;;;25.58;19.15;;;;;;;;;;5087470;28;20181;-68
2022/08/19 08:35:42;;;;;;;26.30;17.70;;;;;;;;;;5083783;28;20440;-70
2022/08/19 08:38:08;;;;;;;25.05;17.40;;;;;;;;;;5097123;28;20040;-71
2022/08/19 08:40:40;;;;;;;23.88;18.35;;;;;;;;;;5090737;28;20096;-71
2022/08/19 08:43:09;;;;;;;24.38;18.27;;;;;;;;;;5072720;28;20040;-70
2022/08/19 08:45:39;;;;;;;23.75;17.75;;;;;;;;;;5065305;28;20048;-69
2022/08/19 08:48:17;;;;;;;26.33;18.08;;;;;;;;;;5068259;28;20533;-70
2022/08/19 08:50:45;;;;;;;25.15;19.48;;;;;;;;;;5054072;28;20093;-69
2022/08/19 08:53:14;;;;;;;22.52;19.02;;;;;;;;;;5070660;28;20427;-69
2022/08/19 08:55:41;;;;;;;23.50;19.15;;;;;;;;;;5070842;28;20040;-69
2022/08/19 08:58:15;;;;;;;25.55;20.25;;;;;;;;;;5058086;28;20033;-70
2022/08/19 09:00:44;;;;;;;22.15;18.15;;;;;;;;;;5069268;28;20110;-70
2022/08/19 09:03:17;;;;;;;31.00;20.63;;;;;;;;;;5067446;28;20178;-69
2022/08/19 09:05:47;;;;;;;27.75;20.23;;;;;;;;;;5038095;28;20040;-70
2022/08/19 09:08:34;;;;;;;27.70;18.73;;;;;;;;;;5067305;28;20121;-69
2022/08/19 09:11:02;;;;;;;24.65;20.20;;;;;;;;;;5046379;28;20251;-70
2022/08/19 09:13:36;;;;;;;21.35;16.92;;;;;;;;;;5063607;28;20037;-70
2022/08/19 09:16:06;;;;;;;23.63;16.90;;;;;;;;;;5066038;28;20052;-69
2022/08/19 09:18:45;;;;;;;23.27;18.45;;;;;;;;;;5065606;28;20028;-68
2022/08/19 09:21:12;;;;;;;23.77;19.17;;;;;;;;;;5066920;28;20553;-69
2022/08/19 09:23:39;;;;;;;30.17;19.42;;;;;;;;;;5076497;28;20040;-69
2022/08/19 09:26:13;;;;;;;23.38;17.23;;;;;;;;;;5069966;28;20037;-69
2022/08/19 09:28:43;;;;;;;23.73;17.30;;;;;;;;;;5054441;28;20394;-69
2022/08/19 09:31:10;;;;;;;26.35;19.98;;;;;;;;;;5055685;28;20070;-69
2022/08/19 09:33:37;;;;;;;29.70;19.67;;;;;;;;;;5060924;28;20049;-68
2022/08/19 09:36:04;;;;;;;22.92;17.70;;;;;;;;;;5057921;28;20032;-68
2022/08/19 09:38:31;;;;;;;25.30;19.48;;;;;;;;;;5060319;28;20044;-68
2022/08/19 09:41:02;;;;;;;21.08;17.25;;;;;;;;;;5053551;28;20128;-68
2022/08/19 09:43:28;;;;;;;26.00;19.48;;;;;;;;;;5056740;28;20048;-67
2022/08/19 09:45:54;;;;;;;28.55;20.23;;;;;;;;;;5042721;28;20426;-68
2022/08/19 09:48:21;;;;;;;24.35;19.50;;;;;;;;;;5064889;28;20056;-67
2022/08/19 09:50:47;;;;;;;24.65;20.33;;;;;;;;;;5059762;28;20039;-67
2022/08/19 09:53:13;;;;;;;28.00;19.88;;;;;;;;;;5067349;28;20049;-67
2022/08/19 09:55:43;;;;;;;19.05;16.83;;;;;;;;;;5069386;28;20557;-67
2022/08/19 09:58:10;;;;;;;19.70;15.90;;;;;;;;;;5067403;28;20048;-68
2022/08/19 10:00:38;;;;;;;22.20;17.70;;;;;;;;;;5065225;28;20060;-67
2022/08/19 10:03:04;;;;;;;22.23;15.55;;;;;;;;;;5066007;28;20044;-68
2022/08/19 10:05:48;;;;;;;20.48;15.38;;;;;;;;;;5065830;28;20048;-68
2022/08/19 10:08:15;;;;;;;19.13;13.02;;;;;;;;;;5049001;28;20044;-69
2022/08/19 10:10:43;;;;;;;19.17;13.68;;;;;;;;;;5067710;28;20576;-68
2022/08/19 10:13:10;;;;;;;16.35;11.38;;;;;;;;;;5065984;28;20064;-68
2022/08/19 10:15:39;;;;;;;17.33;13.25;;;;;;;;;;5072233;28;20044;-69
2022/08/19 10:18:06;;;;;;;18.23;12.90;;;;;;;;;;5064906;28;20032;-68
2022/08/19 10:20:32;;;;;;;23.55;14.90;;;;;;;;;;5060151;28;20406;-68
2022/08/19 10:22:59;;;;;;;15.48;12.95;;;;;;;;;;5055807;28;20518;-68
2022/08/19 10:25:26;;;;;;;17.05;12.18;;;;;;;;;;5061636;28;20041;-68
2022/08/19 10:27:53;;;;;;;17.25;13.88;;;;;;;;;;5064271;28;20575;-68
2022/08/19 10:30:20;;;;;;;19.20;12.05;;;;;;;;;;5063853;28;20631;-67
2022/08/19 10:32:46;;;;;;;15.88;12.25;;;;;;;;;;5062015;28;20056;-67
2022/08/19 10:35:13;;;;;;;14.95;12.63;;;;;;;;;;5055307;28;20075;-68
2022/08/19 10:37:40;;;;;;;15.65;11.48;;;;;;;;;;5053818;28;20041;-68
2022/08/19 10:40:07;;;;;;;18.00;14.63;;;;;;;;;;5053212;28;20041;-68
2022/08/19 10:42:34;;;;;;;17.27;13.15;;;;;;;;;;5066813;28;20089;-68
2022/08/19 10:45:01;;;;;;;17.02;12.05;;;;;;;;;;5073297;28;20479;-68
2022/08/19 10:47:27;;;;;;;18.30;12.93;;;;;;;;;;5096670;28;20050;-68
2022/08/19 10:52:42;;;;;;;16.73;11.90;;;;;;;;;;5094222;28;20047;-70
2022/08/19 10:57:54;;;;;;;15.45;10.60;;;;;;;;;;5096919;27;20575;-71
2022/08/19 11:00:21;;;;;;;14.60;12.18;;;;;;;;;;5077768;28;20052;-71
2022/08/19 11:02:47;;;;;;;16.88;13.10;;;;;;;;;;5076781;28;20092;-71
2022/08/19 11:05:14;;;;;;;15.85;11.85;;;;;;;;;;5082617;28;20040;-70
2022/08/19 11:07:40;;;;;;;18.80;12.57;;;;;;;;;;5079415;28;20044;-71
2022/08/19 11:10:10;;;;;;;14.85;11.32;;;;;;;;;;5094314;28;20043;-71
2022/08/19 11:12:40;;;;;;;18.25;12.50;;;;;;;;;;5077903;28;20064;-66
2022/08/19 11:15:10;;;;;;;19.13;12.98;;;;;;;;;;5071590;28;20125;-67
2022/08/19 11:17:43;;;;;;;21.05;12.23;;;;;;;;;;5089432;28;20044;-69
2022/08/19 11:20:10;;;;;;;15.50;12.80;;;;;;;;;;5078629;28;20131;-70
2022/08/19 11:22:37;;;;;;;19.55;13.65;;;;;;;;;;5096108;28;20529;-70
2022/08/19 11:25:03;;;;;;;69.10;19.80;;;;;;;;;;5082898;28;20485;-70
2022/08/19 11:27:30;;;;;;;17.75;12.45;;;;;;;;;;5077809;28;20048;-70
2022/08/19 11:29:56;;;;;;;31.33;13.98;;;;;;;;;;5077234;28;20058;-70
2022/08/19 11:32:22;;;;;;;18.83;12.20;;;;;;;;;;5092857;28;20044;-70
2022/08/19 11:34:49;;;;;;;16.23;10.15;;;;;;;;;;5072964;28;20043;-70
2022/08/19 11:37:15;;;;;;;16.48;11.18;;;;;;;;;;5089458;28;20097;-72
2022/08/19 11:39:41;;;;;;;18.38;13.43;;;;;;;;;;5074376;28;20068;-72
2022/08/19 11:44:53;;;;;;;16.42;11.60;;;;;;;;;;5086457;28;20125;-71
2022/08/19 11:47:20;;;;;;;18.50;13.05;;;;;;;;;;5082653;28;20055;-71
2022/08/19 11:49:46;;;;;;;15.70;11.10;;;;;;;;;;5082654;28;20043;-69
2022/08/19 11:52:12;;;;;;;14.95;11.35;;;;;;;;;;5094402;28;20089;-76
2022/08/19 11:54:39;;;;;;;19.35;11.63;;;;;;;;;;5096467;28;20054;-76
2022/08/19 11:57:05;;;;;;;14.45;10.95;;;;;;;;;;5102118;28;20032;-76
2022/08/19 11:59:31;;;;;;;17.38;11.48;;;;;;;;;;5106223;28;20044;-76
2022/08/19 12:01:58;;;;;;;21.33;12.18;;;;;;;;;;5109802;28;20342;-77
2022/08/19 12:04:25;;;;;;;15.70;9.27;;;;;;;;;;5108160;28;20039;-76
2022/08/19 12:06:51;;;;;;;37.42;12.35;;;;;;;;;;5109411;28;20052;-77
2022/08/19 12:09:17;;;;;;;103.93;21.98;;;;;;;;;;5087167;28;20115;-76
2022/08/19 12:11:44;;;;;;;12.43;8.02;;;;;;;;;;5105273;28;20032;-73
2022/08/19 12:14:13;;;;;;;10.60;7.38;;;;;;;;;;5106160;28;20040;-75
2022/08/19 12:16:41;;;;;;;12.63;7.93;;;;;;;;;;5098654;28;20124;-75
2022/08/19 12:19:07;;;;;;;13.80;9.60;;;;;;;;;;5091791;28;20043;-72
2022/08/19 12:21:34;;;;;;;32.47;11.45;;;;;;;;;;5111250;28;20040;-71
2022/08/19 12:24:01;;;;;;;13.73;9.23;;;;;;;;;;5112848;27;20059;-70
2022/08/19 12:26:28;;;;;;;11.00;8.05;;;;;;;;;;5123046;27;20050;-70
2022/08/19 12:28:55;;;;;;;12.63;9.20;;;;;;;;;;5110768;27;20042;-70
2022/08/19 12:31:21;;;;;;;215.85;41.30;;;;;;;;;;5118325;27;20058;-71
2022/08/19 12:33:48;;;;;;;12.13;9.88;;;;;;;;;;5094029;28;20095;-70
2022/08/19 12:36:15;;;;;;;32.97;13.15;;;;;;;;;;5123547;27;20030;-71
2022/08/19 12:38:42;;;;;;;15.07;9.52;;;;;;;;;;5118384;27;20035;-71
2022/08/19 12:41:10;;;;;;;29.38;18.90;;;;;;;;;;5112877;28;20090;-71
2022/08/19 12:43:37;;;;;;;23.73;17.65;;;;;;;;;;5112837;28;20040;-71
2022/08/19 12:46:07;;;;;;;23.23;17.23;;;;;;;;;;5093360;28;20625;-71
2022/08/19 12:48:33;;;;;;;25.13;18.70;;;;;;;;;;5108508;27;20048;-71
2022/08/19 12:51:00;;;;;;;26.90;19.75;;;;;;;;;;5093263;28;20374;-71
2022/08/19 12:53:28;;;;;;;24.90;18.48;;;;;;;;;;5109857;28;20027;-71
2022/08/19 12:55:59;;;;;;;25.20;17.75;;;;;;;;;;5111062;27;20104;-71
2022/08/19 12:58:26;;;;;;;27.27;17.35;;;;;;;;;;5107365;27;20142;-71
2022/08/19 13:00:52;;;;;;;20.42;15.57;;;;;;;;;;5109087;27;20039;-71
2022/08/19 13:03:19;;;;;;;21.90;15.20;;;;;;;;;;5110197;27;20036;-71
2022/08/19 13:05:45;;;;;;;22.23;15.40;;;;;;;;;;5102393;28;20042;-71
2022/08/19 13:08:11;;;;;;;68.60;21.90;;;;;;;;;;5088226;28;20048;-71
2022/08/19 13:10:38;;;;;;;21.92;16.80;;;;;;;;;;5115295;27;20032;-71
2022/08/19 13:13:06;;;;;;;21.60;16.45;;;;;;;;;;5105810;27;20066;-71
2022/08/19 13:15:36;;;;;;;26.05;15.55;;;;;;;;;;5111876;27;20119;-71
2022/08/19 13:18:03;;;;;;;23.13;17.75;;;;;;;;;;5117206;27;20047;-71
2022/08/19 13:20:29;;;;;;;21.25;17.23;;;;;;;;;;5103813;28;20039;-70
2022/08/19 13:22:56;;;;;;;20.48;16.15;;;;;;;;;;5091498;28;20055;-70
2022/08/19 13:25:23;;;;;;;22.50;16.75;;;;;;;;;;5104510;27;20032;-70
2022/08/19 13:27:50;;;;;;;27.38;16.60;;;;;;;;;;5087825;27;20040;-71
2022/08/19 13:33:11;;;;;;;25.40;16.83;;;;;;;;;;5108294;28;20435;-71
2022/08/19 13:35:40;;;;;;;21.90;15.75;;;;;;;;;;5089592;28;20035;-69
2022/08/19 13:38:06;;;;;;;27.48;16.50;;;;;;;;;;5098530;28;20513;-70
2022/08/19 13:40:33;;;;;;;28.88;19.88;;;;;;;;;;5102487;27;20046;-70
2022/08/19 13:43:00;;;;;;;24.77;17.38;;;;;;;;;;5074923;28;20043;-69
2022/08/19 13:45:28;;;;;;;25.98;16.77;;;;;;;;;;5109166;28;20055;-69
2022/08/19 13:47:55;;;;;;;27.55;19.35;;;;;;;;;;5101835;27;20059;-69
2022/08/19 13:50:26;;;;;;;26.05;17.42;;;;;;;;;;5105119;27;20421;-70
2022/08/19 13:52:53;;;;;;;23.20;17.52;;;;;;;;;;5108063;27;20040;-70
2022/08/19 13:55:19;;;;;;;23.75;15.82;;;;;;;;;;5108399;28;20389;-71
2022/08/19 13:57:45;;;;;;;18.83;13.85;;;;;;;;;;5110714;27;20035;-70
2022/08/19 14:00:15;;;;;;;19.52;16.23;;;;;;;;;;5110308;27;20119;-71
2022/08/19 14:02:42;;;;;;;21.38;16.85;;;;;;;;;;5108625;27;20038;-71
2022/08/19 14:05:10;;;;;;;20.63;15.20;;;;;;;;;;5111282;28;20535;-70
2022/08/19 14:07:36;;;;;;;21.25;16.25;;;;;;;;;;5108412;27;20045;-69
2022/08/19 14:10:04;;;;;;;24.13;16.13;;;;;;;;;;5099632;27;20054;-67
2022/08/19 14:12:31;;;;;;;19.13;15.25;;;;;;;;;;5110323;27;20097;-69
2022/08/19 14:14:58;;;;;;;20.52;15.85;;;;;;;;;;5110086;28;20454;-69
2022/08/19 14:17:24;;;;;;;22.35;14.27;;;;;;;;;;5099691;28;20039;-69
2022/08/19 14:19:56;;;;;;;19.50;13.38;;;;;;;;;;5113583;27;20063;-65
2022/08/19 14:22:22;;;;;;;18.50;12.75;;;;;;;;;;5089152;28;20044;-66
2022/08/19 14:24:49;;;;;;;18.20;13.23;;;;;;;;;;5107838;27;20031;-66
2022/08/19 14:27:16;;;;;;;18.70;11.98;;;;;;;;;;5110936;27;20035;-66
2022/08/19 14:29:42;;;;;;;14.10;12.02;;;;;;;;;;5114240;27;20061;-66
2022/08/19 14:32:08;;;;;;;15.00;10.00;;;;;;;;;;5091928;28;20046;-66
2022/08/19 14:34:37;;;;;;;13.05;9.60;;;;;;;;;;5109660;28;20050;-66
2022/08/19 14:37:03;;;;;;;14.73;9.55;;;;;;;;;;5109319;27;20344;-71
2022/08/19 14:39:29;;;;;;;16.60;12.13;;;;;;;;;;5091280;28;20067;-64
2022/08/19 14:41:56;;;;;;;17.08;11.73;;;;;;;;;;5109764;27;20040;-68
2022/08/19 14:44:22;;;;;;;14.98;10.63;;;;;;;;;;5108921;28;20062;-68
2022/08/19 14:46:49;;;;;;;13.05;10.43;;;;;;;;;;5091719;27;20531;-68
2022/08/19 14:49:15;;;;;;;13.52;10.85;;;;;;;;;;5109856;28;20043;-68
2022/08/19 14:51:41;;;;;;;13.02;9.45;;;;;;;;;;5119420;27;20114;-68